sensor_id;sensor_type;location;lat;lon;timestamp;temperature;humidity
2571;DHT22;1295;51.130;6.732;2023-09-08T00:01:26;25.40;99.90
2571;DHT22;1295;51.130;6.732;2023-09-08T00:03:51;25.40;99.90
2571;DHT22;1295;51.130;6.732;2023-09-08T00:06:17;25.40;99.90
2571;DHT22;1295;51.130;6.732;2023-09-08T00:08:42;25.40;99.90
2571;DHT22;1295;51.130;6.732;2023-09-08T00:11:09;25.40;99.90
2571;DHT22;1295;51.130;6.732;2023-09-08T00:13:34;25.40;99.90
2571;DHT22;1295;51.130;6.732;2023-09-08T00:16:00;25.40;99.90
2571;DHT22;1295;51.130;6.732;2023-09-08T00:18:26;25.40;99.90
2571;DHT22;1295;51.130;6.732;2023-09-08T00:20:51;25.40;99.90
2571;DHT22;1295;51.130;6.732;2023-09-08T00:23:18;25.40;99.90
2571;DHT22;1295;51.130;6.732;2023-09-08T00:25:43;25.30;99.90
2571;DHT22;1295;51.130;6.732;2023-09-08T00:28:09;25.30;99.90
2571;DHT22;1295;51.130;6.732;2023-09-08T00:30:34;25.30;99.90
2571;DHT22;1295;51.130;6.732;2023-09-08T00:33:00;25.30;99.90
2571;DHT22;1295;51.130;6.732;2023-09-08T00:35:26;25.20;99.90
2571;DHT22;1295;51.130;6.732;2023-09-08T00:37:51;25.20;99.90
2571;DHT22;1295;51.130;6.732;2023-09-08T00:40:17;25.20;99.90
2571;DHT22;1295;51.130;6.732;2023-09-08T00:42:43;25.20;99.90
2571;DHT22;1295;51.130;6.732;2023-09-08T00:45:09;25.20;99.90
2571;DHT22;1295;51.130;6.732;2023-09-08T00:47:34;25.20;99.90
2571;DHT22;1295;51.130;6.732;2023-09-08T00:50:01;25.10;99.90
2571;DHT22;1295;51.130;6.732;2023-09-08T00:52:26;25.10;99.90
2571;DHT22;1295;51.130;6.732;2023-09-08T00:54:51;25.10;99.90
2571;DHT22;1295;51.130;6.732;2023-09-08T00:57:17;25.10;99.90
2571;DHT22;1295;51.130;6.732;2023-09-08T00:59:42;25.10;99.90
2571;DHT22;1295;51.130;6.732;2023-09-08T01:02:08;25.10;99.90
2571;DHT22;1295;51.130;6.732;2023-09-08T01:04:34;25.10;99.90
2571;DHT22;1295;51.130;6.732;2023-09-08T01:06:59;25.00;99.90
2571;DHT22;1295;51.130;6.732;2023-09-08T01:09:25;25.00;99.90
2571;DHT22;1295;51.130;6.732;2023-09-08T01:11:51;25.00;99.90
2571;DHT22;1295;51.130;6.732;2023-09-08T01:14:17;25.00;99.90
2571;DHT22;1295;51.130;6.732;2023-09-08T01:16:43;25.00;99.90
2571;DHT22;1295;51.130;6.732;2023-09-08T01:19:10;25.00;99.90
2571;DHT22;1295;51.130;6.732;2023-09-08T01:21:51;24.90;99.90
2571;DHT22;1295;51.130;6.732;2023-09-08T01:27:08;24.90;99.90
2571;DHT22;1295;51.130;6.732;2023-09-08T01:29:34;24.90;99.90
2571;DHT22;1295;51.130;6.732;2023-09-08T01:31:59;24.90;99.90
2571;DHT22;1295;51.130;6.732;2023-09-08T01:34:25;24.90;99.90
2571;DHT22;1295;51.130;6.732;2023-09-08T01:36:50;24.80;99.90
2571;DHT22;1295;51.130;6.732;2023-09-08T01:39:16;24.80;99.90
2571;DHT22;1295;51.130;6.732;2023-09-08T01:41:42;24.80;99.90
2571;DHT22;1295;51.130;6.732;2023-09-08T01:44:08;24.80;99.90
2571;DHT22;1295;51.130;6.732;2023-09-08T01:46:34;24.80;99.90
2571;DHT22;1295;51.130;6.732;2023-09-08T01:48:59;24.70;99.90
2571;DHT22;1295;51.130;6.732;2023-09-08T01:51:25;24.70;99.90
2571;DHT22;1295;51.130;6.732;2023-09-08T01:53:51;24.70;99.90
2571;DHT22;1295;51.130;6.732;2023-09-08T01:56:16;24.70;99.90
2571;DHT22;1295;51.130;6.732;2023-09-08T01:58:42;24.70;99.90
2571;DHT22;1295;51.130;6.732;2023-09-08T02:01:08;24.60;99.90
2571;DHT22;1295;51.130;6.732;2023-09-08T02:03:35;24.60;99.90
2571;DHT22;1295;51.130;6.732;2023-09-08T02:06:00;24.60;99.90
2571;DHT22;1295;51.130;6.732;2023-09-08T02:08:26;24.60;99.90
2571;DHT22;1295;51.130;6.732;2023-09-08T02:10:52;24.60;99.90
2571;DHT22;1295;51.130;6.732;2023-09-08T02:13:17;24.60;99.90
2571;DHT22;1295;51.130;6.732;2023-09-08T02:15:43;24.60;99.90
2571;DHT22;1295;51.130;6.732;2023-09-08T02:18:08;24.60;99.90
2571;DHT22;1295;51.130;6.732;2023-09-08T02:20:34;24.60;99.90
2571;DHT22;1295;51.130;6.732;2023-09-08T02:23:04;24.60;99.90
2571;DHT22;1295;51.130;6.732;2023-09-08T02:25:26;24.50;99.90
2571;DHT22;1295;51.130;6.732;2023-09-08T02:27:52;24.50;99.90
2571;DHT22;1295;51.130;6.732;2023-09-08T02:30:18;24.40;99.90
2571;DHT22;1295;51.130;6.732;2023-09-08T02:32:44;24.40;99.90
2571;DHT22;1295;51.130;6.732;2023-09-08T02:35:10;24.40;99.90
2571;DHT22;1295;51.130;6.732;2023-09-08T02:37:36;24.40;99.90
2571;DHT22;1295;51.130;6.732;2023-09-08T02:40:01;24.40;99.90
2571;DHT22;1295;51.130;6.732;2023-09-08T02:42:27;24.40;99.90
2571;DHT22;1295;51.130;6.732;2023-09-08T02:44:52;24.40;99.90
2571;DHT22;1295;51.130;6.732;2023-09-08T02:47:18;24.40;99.90
2571;DHT22;1295;51.130;6.732;2023-09-08T02:49:44;24.30;99.90
2571;DHT22;1295;51.130;6.732;2023-09-08T02:52:10;24.30;99.90
2571;DHT22;1295;51.130;6.732;2023-09-08T02:54:36;24.30;99.90
2571;DHT22;1295;51.130;6.732;2023-09-08T02:57:01;24.20;99.90
2571;DHT22;1295;51.130;6.732;2023-09-08T02:59:27;24.20;99.90
2571;DHT22;1295;51.130;6.732;2023-09-08T03:01:53;24.30;99.90
2571;DHT22;1295;51.130;6.732;2023-09-08T03:04:19;24.30;99.90
2571;DHT22;1295;51.130;6.732;2023-09-08T03:06:45;24.30;99.90
2571;DHT22;1295;51.130;6.732;2023-09-08T03:09:10;24.20;99.90
2571;DHT22;1295;51.130;6.732;2023-09-08T03:11:36;24.30;99.90
2571;DHT22;1295;51.130;6.732;2023-09-08T03:14:01;24.20;99.90
2571;DHT22;1295;51.130;6.732;2023-09-08T03:16:27;24.20;99.90
2571;DHT22;1295;51.130;6.732;2023-09-08T03:18:53;24.20;99.90
2571;DHT22;1295;51.130;6.732;2023-09-08T03:21:18;24.20;99.90
2571;DHT22;1295;51.130;6.732;2023-09-08T03:23:44;24.10;99.90
2571;DHT22;1295;51.130;6.732;2023-09-08T03:26:10;24.10;99.90
2571;DHT22;1295;51.130;6.732;2023-09-08T03:28:36;24.10;99.90
2571;DHT22;1295;51.130;6.732;2023-09-08T03:31:02;24.10;99.90
2571;DHT22;1295;51.130;6.732;2023-09-08T03:33:27;24.10;99.90
2571;DHT22;1295;51.130;6.732;2023-09-08T03:35:53;24.10;99.90
2571;DHT22;1295;51.130;6.732;2023-09-08T03:38:19;24.10;99.90
2571;DHT22;1295;51.130;6.732;2023-09-08T03:40:44;24.10;99.90
2571;DHT22;1295;51.130;6.732;2023-09-08T03:43:10;24.00;99.90
2571;DHT22;1295;51.130;6.732;2023-09-08T03:45:35;24.00;99.90
2571;DHT22;1295;51.130;6.732;2023-09-08T03:48:01;24.00;99.90
2571;DHT22;1295;51.130;6.732;2023-09-08T03:50:27;23.90;99.90
2571;DHT22;1295;51.130;6.732;2023-09-08T03:52:53;23.90;99.90
2571;DHT22;1295;51.130;6.732;2023-09-08T03:55:19;23.90;99.90
2571;DHT22;1295;51.130;6.732;2023-09-08T03:57:44;24.00;99.90
2571;DHT22;1295;51.130;6.732;2023-09-08T04:00:11;24.00;99.90
2571;DHT22;1295;51.130;6.732;2023-09-08T04:02:37;23.90;99.90
2571;DHT22;1295;51.130;6.732;2023-09-08T04:05:03;23.90;99.90
2571;DHT22;1295;51.130;6.732;2023-09-08T04:07:29;23.90;99.90
2571;DHT22;1295;51.130;6.732;2023-09-08T04:09:54;23.90;99.90
2571;DHT22;1295;51.130;6.732;2023-09-08T04:12:20;23.90;99.90
2571;DHT22;1295;51.130;6.732;2023-09-08T04:14:46;23.80;99.90
2571;DHT22;1295;51.130;6.732;2023-09-08T04:17:12;23.80;99.90
2571;DHT22;1295;51.130;6.732;2023-09-08T04:19:38;23.90;99.90
2571;DHT22;1295;51.130;6.732;2023-09-08T04:22:04;23.80;99.90
2571;DHT22;1295;51.130;6.732;2023-09-08T04:24:33;23.80;99.90
2571;DHT22;1295;51.130;6.732;2023-09-08T04:26:55;23.80;99.90
2571;DHT22;1295;51.130;6.732;2023-09-08T04:29:21;23.80;99.90
2571;DHT22;1295;51.130;6.732;2023-09-08T04:31:47;23.60;99.90
2571;DHT22;1295;51.130;6.732;2023-09-08T04:34:12;23.70;99.90
2571;DHT22;1295;51.130;6.732;2023-09-08T04:36:38;23.60;99.90
2571;DHT22;1295;51.130;6.732;2023-09-08T04:39:04;23.70;99.90
2571;DHT22;1295;51.130;6.732;2023-09-08T04:41:29;23.70;99.90
2571;DHT22;1295;51.130;6.732;2023-09-08T04:43:55;23.60;99.90
2571;DHT22;1295;51.130;6.732;2023-09-08T04:46:21;23.50;99.90
2571;DHT22;1295;51.130;6.732;2023-09-08T04:48:46;23.60;99.90
2571;DHT22;1295;51.130;6.732;2023-09-08T04:51:13;23.50;99.90
2571;DHT22;1295;51.130;6.732;2023-09-08T04:53:38;23.50;99.90
2571;DHT22;1295;51.130;6.732;2023-09-08T04:56:04;23.60;99.90
2571;DHT22;1295;51.130;6.732;2023-09-08T04:58:30;23.60;99.90
2571;DHT22;1295;51.130;6.732;2023-09-08T05:00:56;23.60;99.90
2571;DHT22;1295;51.130;6.732;2023-09-08T05:03:22;23.60;99.90
2571;DHT22;1295;51.130;6.732;2023-09-08T05:05:47;23.50;99.90
2571;DHT22;1295;51.130;6.732;2023-09-08T05:08:13;23.30;99.90
2571;DHT22;1295;51.130;6.732;2023-09-08T05:10:38;23.30;99.90
2571;DHT22;1295;51.130;6.732;2023-09-08T05:13:04;23.30;99.90
2571;DHT22;1295;51.130;6.732;2023-09-08T05:15:30;23.40;99.90
2571;DHT22;1295;51.130;6.732;2023-09-08T05:17:57;23.50;99.90
2571;DHT22;1295;51.130;6.732;2023-09-08T05:20:22;23.50;99.90
2571;DHT22;1295;51.130;6.732;2023-09-08T05:22:48;23.50;99.90
2571;DHT22;1295;51.130;6.732;2023-09-08T05:25:14;23.40;99.90
2571;DHT22;1295;51.130;6.732;2023-09-08T05:27:39;23.50;99.90
2571;DHT22;1295;51.130;6.732;2023-09-08T05:30:06;23.50;99.90
2571;DHT22;1295;51.130;6.732;2023-09-08T05:32:32;23.50;99.90
2571;DHT22;1295;51.130;6.732;2023-09-08T05:34:58;23.40;99.90
2571;DHT22;1295;51.130;6.732;2023-09-08T05:37:23;23.40;99.90
2571;DHT22;1295;51.130;6.732;2023-09-08T05:39:49;23.40;99.90
2571;DHT22;1295;51.130;6.732;2023-09-08T05:42:15;23.40;99.90
2571;DHT22;1295;51.130;6.732;2023-09-08T05:44:40;23.30;99.90
2571;DHT22;1295;51.130;6.732;2023-09-08T05:47:06;23.40;99.90
2571;DHT22;1295;51.130;6.732;2023-09-08T05:49:32;23.40;99.90
2571;DHT22;1295;51.130;6.732;2023-09-08T05:51:57;23.30;99.90
2571;DHT22;1295;51.130;6.732;2023-09-08T05:54:23;23.40;99.90
2571;DHT22;1295;51.130;6.732;2023-09-08T05:56:49;23.30;99.90
2571;DHT22;1295;51.130;6.732;2023-09-08T05:59:14;23.30;99.90
2571;DHT22;1295;51.130;6.732;2023-09-08T06:01:40;23.30;99.90
2571;DHT22;1295;51.130;6.732;2023-09-08T06:04:06;23.30;99.90
2571;DHT22;1295;51.130;6.732;2023-09-08T06:06:31;22.90;99.90
2571;DHT22;1295;51.130;6.732;2023-09-08T06:08:57;23.10;99.90
2571;DHT22;1295;51.130;6.732;2023-09-08T06:11:23;23.10;99.90
2571;DHT22;1295;51.130;6.732;2023-09-08T06:13:49;23.20;99.90
2571;DHT22;1295;51.130;6.732;2023-09-08T06:16:15;23.20;99.90
2571;DHT22;1295;51.130;6.732;2023-09-08T06:18:40;23.10;99.90
2571;DHT22;1295;51.130;6.732;2023-09-08T06:21:06;22.90;99.90
2571;DHT22;1295;51.130;6.732;2023-09-08T06:23:32;22.60;99.90
2571;DHT22;1295;51.130;6.732;2023-09-08T06:25:57;22.50;99.90
2571;DHT22;1295;51.130;6.732;2023-09-08T06:28:29;22.90;99.90
2571;DHT22;1295;51.130;6.732;2023-09-08T06:31:00;22.90;99.90
2571;DHT22;1295;51.130;6.732;2023-09-08T06:33:26;22.90;99.90
2571;DHT22;1295;51.130;6.732;2023-09-08T06:35:51;22.90;99.90
2571;DHT22;1295;51.130;6.732;2023-09-08T06:38:17;22.90;99.90
2571;DHT22;1295;51.130;6.732;2023-09-08T06:40:42;22.90;99.90
2571;DHT22;1295;51.130;6.732;2023-09-08T06:43:08;22.80;99.90
2571;DHT22;1295;51.130;6.732;2023-09-08T06:45:34;22.70;99.90
2571;DHT22;1295;51.130;6.732;2023-09-08T06:48:06;22.70;99.90
2571;DHT22;1295;51.130;6.732;2023-09-08T06:50:32;22.70;99.90
2571;DHT22;1295;51.130;6.732;2023-09-08T06:52:57;22.40;99.90
2571;DHT22;1295;51.130;6.732;2023-09-08T06:55:23;22.70;99.90
2571;DHT22;1295;51.130;6.732;2023-09-08T06:57:49;22.80;99.90
2571;DHT22;1295;51.130;6.732;2023-09-08T07:00:15;22.80;99.90
2571;DHT22;1295;51.130;6.732;2023-09-08T07:02:41;22.50;99.90
2571;DHT22;1295;51.130;6.732;2023-09-08T07:05:06;22.70;99.90
2571;DHT22;1295;51.130;6.732;2023-09-08T07:07:32;22.80;99.90
2571;DHT22;1295;51.130;6.732;2023-09-08T07:09:58;22.40;99.90
2571;DHT22;1295;51.130;6.732;2023-09-08T07:12:23;22.20;99.90
2571;DHT22;1295;51.130;6.732;2023-09-08T07:14:49;22.60;99.90
2571;DHT22;1295;51.130;6.732;2023-09-08T07:17:15;22.90;99.90
2571;DHT22;1295;51.130;6.732;2023-09-08T07:19:40;23.00;99.90
2571;DHT22;1295;51.130;6.732;2023-09-08T07:22:06;22.70;99.90
2571;DHT22;1295;51.130;6.732;2023-09-08T07:24:32;22.70;99.90
2571;DHT22;1295;51.130;6.732;2023-09-08T07:26:57;22.80;99.90
2571;DHT22;1295;51.130;6.732;2023-09-08T07:29:23;23.00;99.90
2571;DHT22;1295;51.130;6.732;2023-09-08T07:31:48;23.10;99.90
2571;DHT22;1295;51.130;6.732;2023-09-08T07:34:14;23.20;99.90
2571;DHT22;1295;51.130;6.732;2023-09-08T07:36:40;23.20;99.90
2571;DHT22;1295;51.130;6.732;2023-09-08T07:39:05;23.30;99.90
2571;DHT22;1295;51.130;6.732;2023-09-08T07:41:31;23.20;99.90
2571;DHT22;1295;51.130;6.732;2023-09-08T07:43:56;23.20;99.90
2571;DHT22;1295;51.130;6.732;2023-09-08T07:46:22;23.00;99.90
2571;DHT22;1295;51.130;6.732;2023-09-08T07:48:48;23.40;99.90
2571;DHT22;1295;51.130;6.732;2023-09-08T07:51:14;23.30;99.90
2571;DHT22;1295;51.130;6.732;2023-09-08T07:53:40;23.30;99.90
2571;DHT22;1295;51.130;6.732;2023-09-08T07:56:06;23.60;99.90
2571;DHT22;1295;51.130;6.732;2023-09-08T07:58:32;23.60;99.90
2571;DHT22;1295;51.130;6.732;2023-09-08T08:00:57;23.80;99.90
2571;DHT22;1295;51.130;6.732;2023-09-08T08:03:23;23.60;99.90
2571;DHT22;1295;51.130;6.732;2023-09-08T08:05:49;23.60;99.90
2571;DHT22;1295;51.130;6.732;2023-09-08T08:08:14;23.60;99.90
2571;DHT22;1295;51.130;6.732;2023-09-08T08:10:40;23.80;99.90
2571;DHT22;1295;51.130;6.732;2023-09-08T08:13:06;23.90;99.90
2571;DHT22;1295;51.130;6.732;2023-09-08T08:15:36;24.30;99.90
2571;DHT22;1295;51.130;6.732;2023-09-08T08:18:01;24.40;99.90
2571;DHT22;1295;51.130;6.732;2023-09-08T08:20:26;24.40;99.90
2571;DHT22;1295;51.130;6.732;2023-09-08T08:22:52;25.20;99.90
2571;DHT22;1295;51.130;6.732;2023-09-08T08:25:17;24.90;99.90
2571;DHT22;1295;51.130;6.732;2023-09-08T08:27:43;25.20;99.90
2571;DHT22;1295;51.130;6.732;2023-09-08T08:30:09;25.00;99.90
2571;DHT22;1295;51.130;6.732;2023-09-08T08:32:35;24.70;99.90
2571;DHT22;1295;51.130;6.732;2023-09-08T08:35:01;25.20;99.90
2571;DHT22;1295;51.130;6.732;2023-09-08T08:37:26;25.10;99.90
2571;DHT22;1295;51.130;6.732;2023-09-08T08:39:52;24.90;99.90
2571;DHT22;1295;51.130;6.732;2023-09-08T08:42:17;25.20;99.90
2571;DHT22;1295;51.130;6.732;2023-09-08T08:44:44;25.40;99.90
2571;DHT22;1295;51.130;6.732;2023-09-08T08:47:10;25.40;99.90
2571;DHT22;1295;51.130;6.732;2023-09-08T08:49:35;26.00;99.90
2571;DHT22;1295;51.130;6.732;2023-09-08T08:52:01;25.70;99.90
2571;DHT22;1295;51.130;6.732;2023-09-08T08:54:27;26.60;99.90
2571;DHT22;1295;51.130;6.732;2023-09-08T08:56:52;27.20;99.90
2571;DHT22;1295;51.130;6.732;2023-09-08T08:59:18;27.40;99.90
2571;DHT22;1295;51.130;6.732;2023-09-08T09:01:43;26.60;99.90
2571;DHT22;1295;51.130;6.732;2023-09-08T09:04:10;27.10;99.90
2571;DHT22;1295;51.130;6.732;2023-09-08T09:06:35;28.10;99.90
2571;DHT22;1295;51.130;6.732;2023-09-08T09:09:00;29.10;99.90
2571;DHT22;1295;51.130;6.732;2023-09-08T09:11:26;29.40;99.90
2571;DHT22;1295;51.130;6.732;2023-09-08T09:13:51;29.10;99.90
2571;DHT22;1295;51.130;6.732;2023-09-08T09:16:17;29.10;99.90
2571;DHT22;1295;51.130;6.732;2023-09-08T09:18:56;27.70;99.90
2571;DHT22;1295;51.130;6.732;2023-09-08T09:21:20;27.00;99.90
2571;DHT22;1295;51.130;6.732;2023-09-08T09:23:46;26.50;99.90
2571;DHT22;1295;51.130;6.732;2023-09-08T09:26:12;26.30;99.90
2571;DHT22;1295;51.130;6.732;2023-09-08T09:28:46;27.40;99.90
2571;DHT22;1295;51.130;6.732;2023-09-08T09:31:03;26.20;99.90
2571;DHT22;1295;51.130;6.732;2023-09-08T09:33:29;26.00;99.90
2571;DHT22;1295;51.130;6.732;2023-09-08T09:35:54;25.50;99.90
2571;DHT22;1295;51.130;6.732;2023-09-08T09:38:20;28.50;99.90
2571;DHT22;1295;51.130;6.732;2023-09-08T09:40:47;30.00;99.90
2571;DHT22;1295;51.130;6.732;2023-09-08T09:43:13;30.00;99.90
2571;DHT22;1295;51.130;6.732;2023-09-08T09:45:38;27.60;99.90
2571;DHT22;1295;51.130;6.732;2023-09-08T09:48:05;28.50;99.90
2571;DHT22;1295;51.130;6.732;2023-09-08T09:50:32;27.40;99.90
2571;DHT22;1295;51.130;6.732;2023-09-08T09:52:57;27.40;99.90
2571;DHT22;1295;51.130;6.732;2023-09-08T09:55:24;27.50;99.90
2571;DHT22;1295;51.130;6.732;2023-09-08T09:57:49;27.50;99.90
2571;DHT22;1295;51.130;6.732;2023-09-08T10:00:15;27.40;99.90
2571;DHT22;1295;51.130;6.732;2023-09-08T10:02:41;27.00;99.90
2571;DHT22;1295;51.130;6.732;2023-09-08T10:05:11;27.80;99.90
2571;DHT22;1295;51.130;6.732;2023-09-08T10:07:36;28.10;99.90
2571;DHT22;1295;51.130;6.732;2023-09-08T10:10:03;28.00;99.90
2571;DHT22;1295;51.130;6.732;2023-09-08T10:12:28;28.40;99.90
2571;DHT22;1295;51.130;6.732;2023-09-08T10:14:54;28.80;99.90
2571;DHT22;1295;51.130;6.732;2023-09-08T10:17:21;27.80;99.90
2571;DHT22;1295;51.130;6.732;2023-09-08T10:19:46;27.30;99.90
2571;DHT22;1295;51.130;6.732;2023-09-08T10:22:12;27.30;99.90
2571;DHT22;1295;51.130;6.732;2023-09-08T10:24:38;28.50;99.90
2571;DHT22;1295;51.130;6.732;2023-09-08T10:27:04;29.60;99.90
2571;DHT22;1295;51.130;6.732;2023-09-08T10:29:30;29.60;99.90
2571;DHT22;1295;51.130;6.732;2023-09-08T10:31:55;30.60;99.90
2571;DHT22;1295;51.130;6.732;2023-09-08T10:34:21;29.60;99.90
2571;DHT22;1295;51.130;6.732;2023-09-08T10:36:46;30.70;99.90
2571;DHT22;1295;51.130;6.732;2023-09-08T10:39:27;29.90;99.90
2571;DHT22;1295;51.130;6.732;2023-09-08T10:41:43;31.30;99.90
2571;DHT22;1295;51.130;6.732;2023-09-08T10:44:08;31.10;99.90
2571;DHT22;1295;51.130;6.732;2023-09-08T10:46:34;30.20;99.90
2571;DHT22;1295;51.130;6.732;2023-09-08T10:49:03;30.10;99.90
2571;DHT22;1295;51.130;6.732;2023-09-08T10:51:27;30.10;99.90
2571;DHT22;1295;51.130;6.732;2023-09-08T10:53:53;30.30;99.90
2571;DHT22;1295;51.130;6.732;2023-09-08T10:56:18;31.20;99.90
2571;DHT22;1295;51.130;6.732;2023-09-08T10:58:48;32.20;99.90
2571;DHT22;1295;51.130;6.732;2023-09-08T11:01:13;32.90;99.90
2571;DHT22;1295;51.130;6.732;2023-09-08T11:03:46;31.90;99.90
2571;DHT22;1295;51.130;6.732;2023-09-08T11:06:12;32.40;99.90
2571;DHT22;1295;51.130;6.732;2023-09-08T11:08:37;31.60;99.90
2571;DHT22;1295;51.130;6.732;2023-09-08T11:11:03;30.10;99.90
2571;DHT22;1295;51.130;6.732;2023-09-08T11:13:29;29.70;99.90
2571;DHT22;1295;51.130;6.732;2023-09-08T11:15:54;28.70;99.90
2571;DHT22;1295;51.130;6.732;2023-09-08T11:18:26;29.60;99.90
2571;DHT22;1295;51.130;6.732;2023-09-08T11:20:52;29.50;99.90
2571;DHT22;1295;51.130;6.732;2023-09-08T11:23:18;31.60;99.90
2571;DHT22;1295;51.130;6.732;2023-09-08T11:25:43;31.50;99.90
2571;DHT22;1295;51.130;6.732;2023-09-08T11:28:09;30.20;99.90
2571;DHT22;1295;51.130;6.732;2023-09-08T11:30:34;31.00;99.90
2571;DHT22;1295;51.130;6.732;2023-09-08T11:33:00;31.60;99.90
2571;DHT22;1295;51.130;6.732;2023-09-08T11:35:26;31.80;99.90
2571;DHT22;1295;51.130;6.732;2023-09-08T11:37:51;31.10;99.90
2571;DHT22;1295;51.130;6.732;2023-09-08T11:40:17;30.70;99.90
2571;DHT22;1295;51.130;6.732;2023-09-08T11:42:43;30.20;99.90
2571;DHT22;1295;51.130;6.732;2023-09-08T11:45:11;30.20;99.90
2571;DHT22;1295;51.130;6.732;2023-09-08T11:47:36;30.90;99.90
2571;DHT22;1295;51.130;6.732;2023-09-08T11:50:01;30.30;99.90
2571;DHT22;1295;51.130;6.732;2023-09-08T11:52:27;29.30;99.90
2571;DHT22;1295;51.130;6.732;2023-09-08T11:54:54;31.30;99.90
2571;DHT22;1295;51.130;6.732;2023-09-08T11:57:19;31.30;99.90
2571;DHT22;1295;51.130;6.732;2023-09-08T11:59:45;32.70;99.90
2571;DHT22;1295;51.130;6.732;2023-09-08T12:02:10;30.80;99.90
2571;DHT22;1295;51.130;6.732;2023-09-08T12:04:36;29.90;99.90
2571;DHT22;1295;51.130;6.732;2023-09-08T12:07:02;29.00;99.90
2571;DHT22;1295;51.130;6.732;2023-09-08T12:09:27;27.80;99.90
2571;DHT22;1295;51.130;6.732;2023-09-08T12:11:53;28.20;99.90
2571;DHT22;1295;51.130;6.732;2023-09-08T12:14:19;28.70;99.90
2571;DHT22;1295;51.130;6.732;2023-09-08T12:16:45;27.70;99.90
2571;DHT22;1295;51.130;6.732;2023-09-08T12:21:54;28.40;99.90
2571;DHT22;1295;51.130;6.732;2023-09-08T12:24:19;28.40;99.90
2571;DHT22;1295;51.130;6.732;2023-09-08T12:26:45;27.60;99.90
2571;DHT22;1295;51.130;6.732;2023-09-08T12:29:12;29.50;99.90
2571;DHT22;1295;51.130;6.732;2023-09-08T12:31:38;29.30;99.90
2571;DHT22;1295;51.130;6.732;2023-09-08T12:34:04;28.30;99.90
2571;DHT22;1295;51.130;6.732;2023-09-08T12:36:29;29.60;99.90
2571;DHT22;1295;51.130;6.732;2023-09-08T12:38:55;29.40;99.90
2571;DHT22;1295;51.130;6.732;2023-09-08T12:41:21;28.20;99.90
2571;DHT22;1295;51.130;6.732;2023-09-08T12:43:46;28.00;99.90
2571;DHT22;1295;51.130;6.732;2023-09-08T12:46:13;28.80;99.90
2571;DHT22;1295;51.130;6.732;2023-09-08T12:48:38;28.80;99.90
2571;DHT22;1295;51.130;6.732;2023-09-08T12:51:04;29.80;99.90
2571;DHT22;1295;51.130;6.732;2023-09-08T12:53:33;28.20;99.90
2571;DHT22;1295;51.130;6.732;2023-09-08T12:56:00;27.90;99.90
2571;DHT22;1295;51.130;6.732;2023-09-08T12:58:36;28.70;99.90
2571;DHT22;1295;51.130;6.732;2023-09-08T13:01:09;30.10;99.90
2571;DHT22;1295;51.130;6.732;2023-09-08T13:03:35;30.00;99.90
2571;DHT22;1295;51.130;6.732;2023-09-08T13:06:01;30.00;99.90
2571;DHT22;1295;51.130;6.732;2023-09-08T13:08:26;29.00;99.90
2571;DHT22;1295;51.130;6.732;2023-09-08T13:10:52;29.10;99.90
2571;DHT22;1295;51.130;6.732;2023-09-08T13:13:18;29.10;99.90
2571;DHT22;1295;51.130;6.732;2023-09-08T13:15:43;28.60;99.90
2571;DHT22;1295;51.130;6.732;2023-09-08T13:18:09;28.60;99.90
2571;DHT22;1295;51.130;6.732;2023-09-08T13:20:34;28.00;99.90
2571;DHT22;1295;51.130;6.732;2023-09-08T13:23:00;28.40;99.90
2571;DHT22;1295;51.130;6.732;2023-09-08T13:25:26;29.10;99.90
2571;DHT22;1295;51.130;6.732;2023-09-08T13:27:51;30.50;99.90
2571;DHT22;1295;51.130;6.732;2023-09-08T13:30:17;30.60;99.90
2571;DHT22;1295;51.130;6.732;2023-09-08T13:32:44;31.30;99.90
2571;DHT22;1295;51.130;6.732;2023-09-08T13:35:09;31.30;99.90
2571;DHT22;1295;51.130;6.732;2023-09-08T13:37:35;32.10;99.90
2571;DHT22;1295;51.130;6.732;2023-09-08T13:40:01;30.70;99.90
2571;DHT22;1295;51.130;6.732;2023-09-08T13:42:26;29.20;99.90
2571;DHT22;1295;51.130;6.732;2023-09-08T13:44:52;28.60;99.90
2571;DHT22;1295;51.130;6.732;2023-09-08T13:47:18;28.60;99.90
2571;DHT22;1295;51.130;6.732;2023-09-08T13:49:44;28.10;99.90
2571;DHT22;1295;51.130;6.732;2023-09-08T13:52:09;28.80;99.90
2571;DHT22;1295;51.130;6.732;2023-09-08T13:54:35;30.90;99.90
2571;DHT22;1295;51.130;6.732;2023-09-08T13:57:01;30.10;99.90
2571;DHT22;1295;51.130;6.732;2023-09-08T13:59:27;29.50;99.90
2571;DHT22;1295;51.130;6.732;2023-09-08T14:01:52;28.70;99.90
2571;DHT22;1295;51.130;6.732;2023-09-08T14:04:18;28.20;99.90
2571;DHT22;1295;51.130;6.732;2023-09-08T14:06:43;27.70;99.90
2571;DHT22;1295;51.130;6.732;2023-09-08T14:09:09;29.00;99.90
2571;DHT22;1295;51.130;6.732;2023-09-08T14:11:35;28.90;99.90
2571;DHT22;1295;51.130;6.732;2023-09-08T14:14:00;29.80;99.90
2571;DHT22;1295;51.130;6.732;2023-09-08T14:16:26;28.80;99.90
2571;DHT22;1295;51.130;6.732;2023-09-08T14:18:51;30.20;99.90
2571;DHT22;1295;51.130;6.732;2023-09-08T14:21:17;29.20;99.90
2571;DHT22;1295;51.130;6.732;2023-09-08T14:23:43;28.80;99.90
2571;DHT22;1295;51.130;6.732;2023-09-08T14:26:08;29.80;99.90
2571;DHT22;1295;51.130;6.732;2023-09-08T14:28:34;30.30;99.90
2571;DHT22;1295;51.130;6.732;2023-09-08T14:31:00;29.20;99.90
2571;DHT22;1295;51.130;6.732;2023-09-08T14:33:25;29.70;99.90
2571;DHT22;1295;51.130;6.732;2023-09-08T14:35:51;30.40;99.90
2571;DHT22;1295;51.130;6.732;2023-09-08T14:38:17;30.60;99.90
2571;DHT22;1295;51.130;6.732;2023-09-08T14:40:42;30.50;99.90
2571;DHT22;1295;51.130;6.732;2023-09-08T14:43:08;30.00;99.90
2571;DHT22;1295;51.130;6.732;2023-09-08T14:45:33;30.20;99.90
2571;DHT22;1295;51.130;6.732;2023-09-08T14:47:59;30.40;99.90
2571;DHT22;1295;51.130;6.732;2023-09-08T14:50:25;29.80;99.90
2571;DHT22;1295;51.130;6.732;2023-09-08T14:52:50;30.40;99.90
2571;DHT22;1295;51.130;6.732;2023-09-08T14:55:16;30.90;99.90
2571;DHT22;1295;51.130;6.732;2023-09-08T14:57:42;30.50;99.90
2571;DHT22;1295;51.130;6.732;2023-09-08T15:00:08;30.00;99.90
2571;DHT22;1295;51.130;6.732;2023-09-08T15:02:34;30.00;99.90
2571;DHT22;1295;51.130;6.732;2023-09-08T15:05:00;29.30;99.90
2571;DHT22;1295;51.130;6.732;2023-09-08T15:07:25;29.00;99.90
2571;DHT22;1295;51.130;6.732;2023-09-08T15:09:51;28.70;99.90
2571;DHT22;1295;51.130;6.732;2023-09-08T15:12:16;28.80;99.90
2571;DHT22;1295;51.130;6.732;2023-09-08T15:14:42;28.50;99.90
2571;DHT22;1295;51.130;6.732;2023-09-08T15:17:10;29.00;99.90
2571;DHT22;1295;51.130;6.732;2023-09-08T15:19:34;29.00;99.90
2571;DHT22;1295;51.130;6.732;2023-09-08T15:22:00;28.70;99.90
2571;DHT22;1295;51.130;6.732;2023-09-08T15:24:25;28.80;99.90
2571;DHT22;1295;51.130;6.732;2023-09-08T15:26:51;28.70;99.90
2571;DHT22;1295;51.130;6.732;2023-09-08T15:29:16;28.50;99.90
2571;DHT22;1295;51.130;6.732;2023-09-08T15:31:42;29.10;99.90
2571;DHT22;1295;51.130;6.732;2023-09-08T15:34:08;29.40;99.90
2571;DHT22;1295;51.130;6.732;2023-09-08T15:36:33;30.60;99.90
2571;DHT22;1295;51.130;6.732;2023-09-08T15:38:59;30.80;99.90
2571;DHT22;1295;51.130;6.732;2023-09-08T15:41:25;31.00;99.90
2571;DHT22;1295;51.130;6.732;2023-09-08T15:43:51;30.90;99.90
2571;DHT22;1295;51.130;6.732;2023-09-08T15:46:17;30.80;99.90
2571;DHT22;1295;51.130;6.732;2023-09-08T15:48:43;30.50;99.90
2571;DHT22;1295;51.130;6.732;2023-09-08T15:51:09;30.20;99.90
2571;DHT22;1295;51.130;6.732;2023-09-08T15:53:35;30.20;99.90
2571;DHT22;1295;51.130;6.732;2023-09-08T15:56:01;30.30;99.90
2571;DHT22;1295;51.130;6.732;2023-09-08T15:58:26;30.70;99.90